createdAt,value
2018-06-12T00:02:07.188Z,16.50
2018-06-12T00:04:35.732Z,16.40
2018-06-12T00:07:04.360Z,16.40
2018-06-12T00:09:32.896Z,16.30
2018-06-12T00:12:01.501Z,16.30
2018-06-12T00:14:30.120Z,16.40
2018-06-12T00:16:58.776Z,16.40
2018-06-12T00:19:27.350Z,16.40
2018-06-12T00:21:55.953Z,16.30
2018-06-12T00:24:24.531Z,16.40
2018-06-12T00:26:53.145Z,16.40
2018-06-12T00:29:21.709Z,16.40
2018-06-12T00:31:50.300Z,16.30
2018-06-12T00:34:18.864Z,16.30
2018-06-12T00:36:47.407Z,16.30
2018-06-12T00:39:15.956Z,16.20
2018-06-12T00:41:44.517Z,16.20
2018-06-12T00:44:13.073Z,16.30
2018-06-12T00:46:41.660Z,16.20
2018-06-12T00:49:10.260Z,16.30
2018-06-12T00:51:38.832Z,16.40
2018-06-12T00:54:07.487Z,16.40
2018-06-12T00:56:47.279Z,16.20
2018-06-12T00:59:15.858Z,16.30
2018-06-12T01:01:44.429Z,16.30
2018-06-12T01:04:13.100Z,16.40
2018-06-12T01:09:09.885Z,16.30
2018-06-12T01:11:39.056Z,16.10
2018-06-12T01:14:07.663Z,16.20
2018-06-12T01:16:36.223Z,16.30
2018-06-12T01:19:04.805Z,16.30
2018-06-12T01:21:33.356Z,16.20
2018-06-12T01:24:01.938Z,16.30
2018-06-12T01:26:30.473Z,16.20
2018-06-12T01:28:59.057Z,16.20
2018-06-12T01:31:27.621Z,16.30
2018-06-12T01:33:56.216Z,16.20
2018-06-12T01:36:24.764Z,16.30
2018-06-12T01:38:53.341Z,16.20
2018-06-12T01:41:21.871Z,16.20
2018-06-12T01:43:50.449Z,16.20
2018-06-12T01:46:19.041Z,16.30
2018-06-12T01:48:47.607Z,16.30
2018-06-12T01:51:16.200Z,16.20
2018-06-12T01:53:44.760Z,16.20
2018-06-12T01:56:13.332Z,16.30
2018-06-12T01:58:41.917Z,16.30
2018-06-12T02:01:10.525Z,16.30
2018-06-12T02:03:39.116Z,16.30
2018-06-12T02:06:07.681Z,16.40
2018-06-12T02:08:36.241Z,16.40
2018-06-12T02:11:04.884Z,16.40
2018-06-12T02:13:33.434Z,16.40
2018-06-12T02:16:02.024Z,16.40
2018-06-12T02:18:30.560Z,16.40
2018-06-12T02:20:59.139Z,16.50
2018-06-12T02:23:27.696Z,16.50
2018-06-12T02:25:56.277Z,16.30
2018-06-12T02:28:24.820Z,16.30
2018-06-12T02:30:53.392Z,16.30
2018-06-12T02:33:21.976Z,16.40
2018-06-12T02:35:50.535Z,16.40
2018-06-12T02:38:19.099Z,16.50
2018-06-12T02:40:47.677Z,16.60
2018-06-12T02:43:16.224Z,16.50
2018-06-12T02:45:44.790Z,16.50
2018-06-12T02:48:13.365Z,16.40
2018-06-12T02:50:41.950Z,16.40
2018-06-12T02:53:10.484Z,16.40
2018-06-12T02:55:39.085Z,16.40
2018-06-12T02:58:07.678Z,16.40
2018-06-12T03:00:36.270Z,16.50
2018-06-12T03:03:04.831Z,16.40
2018-06-12T03:05:33.444Z,16.40
2018-06-12T03:08:02.451Z,16.50
2018-06-12T03:10:31.066Z,16.50
2018-06-12T03:12:59.630Z,16.50
2018-06-12T03:15:28.319Z,16.50
2018-06-12T03:17:56.892Z,16.50
2018-06-12T03:20:47.244Z,16.60
2018-06-12T03:23:15.880Z,16.60
2018-06-12T03:25:44.500Z,16.50
2018-06-12T03:28:13.104Z,16.60
2018-06-12T03:30:41.718Z,16.60
2018-06-12T03:33:10.306Z,16.60
2018-06-12T03:35:38.894Z,16.50
2018-06-12T03:38:07.558Z,16.50
2018-06-12T03:40:36.151Z,16.50
2018-06-12T03:43:04.851Z,16.50
2018-06-12T03:45:33.409Z,16.50
2018-06-12T03:48:01.980Z,16.40
2018-06-12T03:50:30.545Z,16.30
2018-06-12T03:52:59.193Z,16.30
2018-06-12T03:55:27.749Z,16.30
2018-06-12T03:57:56.341Z,16.40
2018-06-12T04:00:24.910Z,16.50
2018-06-12T04:02:53.505Z,16.50
2018-06-12T04:05:22.075Z,16.50
2018-06-12T04:07:50.661Z,16.60
2018-06-12T04:10:19.240Z,16.60
2018-06-12T04:12:47.852Z,16.60
2018-06-12T04:15:16.428Z,16.50
2018-06-12T04:17:45.013Z,16.50
2018-06-12T04:20:13.597Z,16.50
2018-06-12T04:22:42.184Z,16.60
2018-06-12T04:25:10.825Z,16.70
2018-06-12T04:27:39.787Z,16.70
2018-06-12T04:30:08.419Z,16.70
2018-06-12T04:32:37.065Z,16.80
2018-06-12T04:35:05.917Z,17.00
2018-06-12T04:37:34.514Z,17.00
2018-06-12T04:40:03.102Z,16.90
2018-06-12T04:42:31.685Z,17.00
2018-06-12T04:45:00.211Z,17.10
2018-06-12T04:47:28.781Z,17.20
2018-06-12T04:49:57.356Z,17.30
2018-06-12T04:52:25.912Z,17.30
2018-06-12T04:54:54.525Z,17.30
2018-06-12T04:57:35.652Z,17.30
2018-06-12T05:00:04.305Z,17.30
2018-06-12T05:02:32.893Z,17.30
2018-06-12T05:05:01.483Z,17.10
2018-06-12T05:07:30.094Z,17.10
2018-06-12T05:09:58.716Z,17.00
2018-06-12T05:12:27.263Z,16.90
2018-06-12T05:14:55.835Z,17.00
2018-06-12T05:17:24.429Z,17.00
2018-06-12T05:19:53.029Z,16.90
2018-06-12T05:22:21.602Z,16.90
2018-06-12T05:24:50.182Z,16.90
2018-06-12T05:27:18.769Z,16.90
2018-06-12T05:29:47.376Z,16.90
2018-06-12T05:32:15.975Z,16.90
2018-06-12T05:34:44.648Z,16.90
2018-06-12T05:37:13.241Z,17.00
2018-06-12T05:39:41.850Z,17.00
2018-06-12T05:42:10.413Z,17.00
2018-06-12T05:44:39.003Z,17.00
2018-06-12T05:47:07.567Z,17.00
2018-06-12T05:49:36.299Z,17.00
2018-06-12T05:52:04.970Z,16.60
2018-06-12T05:54:33.683Z,16.50
2018-06-12T05:57:02.299Z,16.30
2018-06-12T05:59:30.946Z,16.20
2018-06-12T06:01:59.572Z,16.30
2018-06-12T06:04:28.166Z,16.20
2018-06-12T06:06:56.760Z,16.20
2018-06-12T06:09:25.320Z,16.30
2018-06-12T06:11:53.928Z,16.30
2018-06-12T06:14:22.517Z,16.30
2018-06-12T06:16:51.118Z,16.20
2018-06-12T06:19:19.709Z,16.30
2018-06-12T06:21:54.729Z,16.30
2018-06-12T06:24:23.282Z,16.20
2018-06-12T06:26:51.864Z,16.20
2018-06-12T06:29:20.468Z,16.10
2018-06-12T06:31:49.094Z,16.10
2018-06-12T06:53:54.961Z,15.40
2018-06-12T06:56:23.549Z,15.30
2018-06-12T06:58:52.173Z,15.40
2018-06-12T07:01:20.743Z,15.40
2018-06-12T07:03:49.300Z,15.40
2018-06-12T07:06:17.885Z,15.40
2018-06-12T07:08:46.593Z,15.40
2018-06-12T07:11:15.175Z,15.40
2018-06-12T07:13:43.721Z,15.30
2018-06-12T07:16:12.355Z,15.40
2018-06-12T07:18:40.945Z,15.30
2018-06-12T07:21:18.498Z,15.40
2018-06-12T07:23:47.196Z,15.60
2018-06-12T07:26:15.899Z,15.70
2018-06-12T07:28:44.537Z,15.80
2018-06-12T07:31:13.160Z,15.70
2018-06-12T07:33:41.799Z,15.80
2018-06-12T07:36:10.370Z,15.90
2018-06-12T07:38:39.021Z,15.80
2018-06-12T07:41:07.630Z,15.80
2018-06-12T07:43:36.237Z,15.90
2018-06-12T07:46:05.041Z,16.10
2018-06-12T07:48:33.654Z,16.10
2018-06-12T07:51:02.211Z,16.10
2018-06-12T07:53:30.774Z,16.20
2018-06-12T07:55:59.437Z,16.30
2018-06-12T07:58:27.990Z,16.40
2018-06-12T08:00:56.593Z,16.40
2018-06-12T08:03:25.187Z,16.50
2018-06-12T08:05:53.720Z,16.40
2018-06-12T08:08:22.307Z,16.40
2018-06-12T08:10:50.912Z,16.30
2018-06-12T08:13:19.480Z,16.30
2018-06-12T08:15:48.015Z,16.40
2018-06-12T08:18:16.603Z,16.50
2018-06-12T08:20:45.133Z,16.50
2018-06-12T08:23:13.715Z,16.70
2018-06-12T08:25:42.266Z,16.70
2018-06-12T08:28:10.857Z,16.70
2018-06-12T08:30:39.492Z,16.70
2018-06-12T08:33:08.049Z,16.60
2018-06-12T08:35:36.680Z,16.40
2018-06-12T08:38:05.261Z,16.30
2018-06-12T08:40:33.828Z,16.40
2018-06-12T08:43:02.408Z,16.50
2018-06-12T08:47:59.204Z,16.40
2018-06-12T08:50:27.836Z,16.20
2018-06-12T08:52:56.354Z,16.10
2018-06-12T08:55:24.925Z,16.10
2018-06-12T08:57:53.534Z,16.10
2018-06-12T09:00:22.100Z,15.80
2018-06-12T09:02:50.646Z,15.90
2018-06-12T09:05:19.290Z,16.10
2018-06-12T09:07:47.860Z,15.90
2018-06-12T09:10:16.457Z,16.00
2018-06-12T09:12:45.042Z,16.00
2018-06-12T09:15:13.652Z,15.90
2018-06-12T09:17:42.192Z,15.90
2018-06-12T09:20:10.802Z,16.00
2018-06-12T09:22:39.344Z,15.90
2018-06-12T09:25:08.006Z,15.90
2018-06-12T09:27:41.881Z,15.80
2018-06-12T09:30:10.431Z,15.90
2018-06-12T09:32:39.074Z,15.70
2018-06-12T09:35:07.682Z,15.80
2018-06-12T09:37:36.278Z,15.90
2018-06-12T09:40:11.445Z,15.90
2018-06-12T09:42:40.022Z,15.90
2018-06-12T09:45:08.605Z,15.80
2018-06-12T09:47:37.156Z,15.80
2018-06-12T09:50:05.754Z,16.00
2018-06-12T09:52:34.320Z,16.00
2018-06-12T09:55:02.879Z,16.00
2018-06-12T09:57:31.461Z,16.00
2018-06-12T10:00:00.085Z,16.00
2018-06-12T10:02:28.695Z,15.90
2018-06-12T10:05:00.269Z,15.80
2018-06-12T10:07:28.918Z,15.90
2018-06-12T10:09:57.503Z,15.90
2018-06-12T10:12:26.099Z,15.90
2018-06-12T10:14:54.640Z,15.90
2018-06-12T10:17:23.248Z,15.90
2018-06-12T10:19:51.897Z,16.00
2018-06-12T10:22:20.461Z,16.10
2018-06-12T10:24:49.013Z,16.20
2018-06-12T10:27:17.644Z,16.20
2018-06-12T10:29:46.195Z,16.30
2018-06-12T10:32:14.801Z,16.20
2018-06-12T10:34:43.397Z,16.50
2018-06-12T10:37:12.101Z,16.60
2018-06-12T10:39:40.664Z,16.60
2018-06-12T10:42:09.282Z,16.80
2018-06-12T10:44:37.869Z,17.10
2018-06-12T10:47:06.499Z,17.60
2018-06-12T10:49:35.059Z,17.80
2018-06-12T10:52:03.646Z,17.90
2018-06-12T10:54:32.231Z,18.20
2018-06-12T10:57:00.801Z,18.50
2018-06-12T10:59:29.332Z,18.70
2018-06-12T11:01:57.946Z,18.80
2018-06-12T11:04:26.487Z,19.00
2018-06-12T11:06:55.073Z,19.10
2018-06-12T11:09:23.627Z,19.10
2018-06-12T11:11:52.164Z,19.30
2018-06-12T11:14:20.751Z,19.30
2018-06-12T11:16:49.317Z,18.50
2018-06-12T11:19:17.871Z,18.00
2018-06-12T11:21:46.397Z,18.30
2018-06-12T11:24:14.969Z,18.50
2018-06-12T11:26:43.532Z,18.20
2018-06-12T11:29:12.095Z,18.30
2018-06-12T11:31:40.690Z,18.30
2018-06-12T11:34:09.301Z,18.00
2018-06-12T11:36:37.884Z,18.00
2018-06-12T11:39:13.083Z,17.80
2018-06-12T11:41:41.681Z,17.90
2018-06-12T11:44:10.295Z,17.70
2018-06-12T11:46:38.855Z,17.90
2018-06-12T11:49:07.438Z,18.10
2018-06-12T11:51:36.005Z,18.00
2018-06-12T11:54:04.604Z,17.90
2018-06-12T11:56:33.215Z,17.90
2018-06-12T11:59:01.814Z,18.00
2018-06-12T12:01:30.380Z,17.90
2018-06-12T12:03:58.966Z,18.00
2018-06-12T12:06:27.533Z,18.10
2018-06-12T12:08:56.173Z,18.10
2018-06-12T12:11:31.319Z,18.00
2018-06-12T12:13:59.900Z,18.00
2018-06-12T12:16:28.453Z,18.00
2018-06-12T12:18:57.037Z,17.60
2018-06-12T12:21:25.604Z,17.60
2018-06-12T12:23:54.209Z,17.50
2018-06-12T12:26:22.763Z,17.40
2018-06-12T12:28:51.312Z,17.40
2018-06-12T12:31:19.893Z,17.20
2018-06-12T12:33:48.465Z,17.10
2018-06-12T12:36:17.031Z,17.10
2018-06-12T12:38:45.577Z,17.00
2018-06-12T12:41:14.174Z,17.00
2018-06-12T12:43:42.754Z,17.00
2018-06-12T12:46:11.316Z,17.00
2018-06-12T12:48:39.865Z,17.00
2018-06-12T12:51:08.428Z,16.90
2018-06-12T12:53:36.971Z,17.00
2018-06-12T12:56:05.577Z,16.90
2018-06-12T12:58:34.092Z,16.90
2018-06-12T13:01:02.673Z,16.90
2018-06-12T13:03:31.212Z,16.80
2018-06-12T13:05:59.787Z,16.70
2018-06-12T13:08:28.332Z,16.70
2018-06-12T13:10:56.920Z,16.70
2018-06-12T13:13:25.677Z,16.60
2018-06-12T13:15:54.231Z,16.50
2018-06-12T13:18:22.846Z,16.50
2018-06-12T13:20:51.522Z,16.60
2018-06-12T13:23:20.069Z,16.70
2018-06-12T13:25:48.636Z,16.80
2018-06-12T13:28:17.328Z,16.90
2018-06-12T13:30:45.904Z,17.00
2018-06-12T13:33:15.037Z,16.70
2018-06-12T13:35:43.597Z,16.70
2018-06-12T13:38:12.127Z,16.50
2018-06-12T13:40:40.721Z,16.40
2018-06-12T13:43:09.268Z,16.30
2018-06-12T13:45:37.828Z,16.40
2018-06-12T13:48:06.420Z,16.30
2018-06-12T13:50:34.969Z,16.30
2018-06-12T13:53:03.584Z,16.20
2018-06-12T13:55:32.137Z,16.20
2018-06-12T13:58:00.704Z,16.10
2018-06-12T14:00:29.368Z,16.20
2018-06-12T14:02:57.949Z,16.30
2018-06-12T14:05:26.500Z,16.20
2018-06-12T14:07:55.065Z,16.30
2018-06-12T14:10:23.604Z,16.40
2018-06-12T14:12:52.166Z,16.30
2018-06-12T14:15:20.733Z,16.20
2018-06-12T14:17:49.329Z,16.20
2018-06-12T14:20:17.900Z,16.20
2018-06-12T14:22:46.493Z,16.10
2018-06-12T14:25:15.090Z,16.10
2018-06-12T14:27:43.653Z,16.10
2018-06-12T14:30:12.214Z,16.10
2018-06-12T14:32:40.821Z,15.80
2018-06-12T14:35:09.445Z,15.80
2018-06-12T14:37:38.093Z,15.80
2018-06-12T14:40:06.695Z,15.80
2018-06-12T14:42:35.329Z,15.80
2018-06-12T14:45:04.012Z,15.90
2018-06-12T14:47:32.628Z,16.00
2018-06-12T14:50:01.233Z,16.10
2018-06-12T14:52:29.852Z,16.00
2018-06-12T14:54:58.452Z,15.90
2018-06-12T14:57:27.046Z,15.90
2018-06-12T14:59:55.633Z,15.70
2018-06-12T15:02:24.200Z,15.70
2018-06-12T15:04:52.802Z,15.60
2018-06-12T15:07:21.406Z,15.60
2018-06-12T15:09:49.985Z,15.40
2018-06-12T15:12:18.548Z,15.50
2018-06-12T15:14:47.284Z,15.60
2018-06-12T15:17:15.871Z,15.80
2018-06-12T15:19:44.446Z,15.80
2018-06-12T15:22:13.004Z,15.70
2018-06-12T15:24:41.596Z,15.50
2018-06-12T15:27:16.796Z,15.40
2018-06-12T15:29:45.410Z,15.30
2018-06-12T15:32:13.989Z,15.20
2018-06-12T15:34:42.617Z,15.10
2018-06-12T15:37:11.725Z,15.20
2018-06-12T15:39:40.320Z,15.10
2018-06-12T15:42:08.889Z,15.00
2018-06-12T15:44:37.660Z,14.90
2018-06-12T15:47:06.221Z,14.90
2018-06-12T15:49:34.824Z,14.80
2018-06-12T15:52:03.422Z,14.80
2018-06-12T15:54:33.238Z,14.80
2018-06-12T15:57:01.891Z,14.80
2018-06-12T15:59:30.538Z,14.80
2018-06-12T16:01:59.405Z,14.90
2018-06-12T16:04:28.117Z,14.90
2018-06-12T16:06:56.688Z,15.00
2018-06-12T16:09:25.297Z,15.00
2018-06-12T16:11:53.902Z,14.90
2018-06-12T16:14:22.528Z,14.90
2018-06-12T16:16:51.096Z,14.90
2018-06-12T16:19:19.732Z,14.90
2018-06-12T16:21:48.334Z,15.00
2018-06-12T16:24:16.912Z,15.10
2018-06-12T16:26:45.556Z,15.20
2018-06-12T16:29:14.160Z,15.30
2018-06-12T16:31:42.818Z,15.30
2018-06-12T16:34:14.212Z,15.40
2018-06-12T16:39:11.104Z,15.40
2018-06-12T16:41:39.753Z,15.30
2018-06-12T16:44:08.323Z,15.60
2018-06-12T16:46:36.930Z,15.60
2018-06-12T16:49:05.477Z,15.60
2018-06-12T16:51:34.060Z,15.40
2018-06-12T16:54:02.631Z,15.40
2018-06-12T16:56:31.305Z,15.30
2018-06-12T16:58:59.882Z,15.40
2018-06-12T17:01:28.480Z,15.50
2018-06-12T17:03:57.037Z,15.60
2018-06-12T17:06:25.640Z,15.70
2018-06-12T17:08:54.248Z,15.60
2018-06-12T17:11:22.825Z,15.60
2018-06-12T17:13:51.404Z,15.50
2018-06-12T17:16:20.208Z,15.40
2018-06-12T17:18:48.809Z,15.50
2018-06-12T17:21:17.441Z,15.40
2018-06-12T17:23:46.090Z,15.50
2018-06-12T17:26:14.725Z,15.50
2018-06-12T17:28:43.308Z,15.60
2018-06-12T17:31:11.953Z,15.50
2018-06-12T17:33:40.578Z,15.50
2018-06-12T17:36:09.222Z,15.40
2018-06-12T17:38:37.808Z,15.40
2018-06-12T17:41:06.725Z,15.30
2018-06-12T17:44:40.480Z,15.30
2018-06-12T17:47:09.101Z,15.30
2018-06-12T17:52:06.005Z,15.40
2018-06-12T17:54:34.573Z,15.30
2018-06-12T17:57:03.230Z,15.30
2018-06-12T17:59:31.857Z,15.30
2018-06-12T18:02:00.664Z,15.40
2018-06-12T18:04:29.226Z,15.30
2018-06-12T18:06:57.845Z,15.30
2018-06-12T18:09:26.485Z,15.40
2018-06-12T18:11:55.178Z,15.30
2018-06-12T18:14:23.759Z,15.40
2018-06-12T18:16:52.385Z,15.30
2018-06-12T18:19:21.037Z,15.30
2018-06-12T18:21:49.727Z,15.20
2018-06-12T18:24:18.340Z,15.20
2018-06-12T18:26:46.956Z,15.20
2018-06-12T18:29:15.550Z,15.20
2018-06-12T18:31:44.166Z,15.20
2018-06-12T18:34:12.824Z,15.10
2018-06-12T18:36:41.468Z,15.20
2018-06-12T18:39:10.161Z,15.20
2018-06-12T18:41:38.786Z,15.10
2018-06-12T18:44:07.457Z,15.00
2018-06-12T18:46:36.124Z,15.00
2018-06-12T18:49:04.777Z,15.10
2018-06-12T18:51:33.398Z,15.10
2018-06-12T18:54:02.131Z,15.10
2018-06-12T18:56:30.769Z,15.00
2018-06-12T18:58:59.470Z,15.00
2018-06-12T19:01:28.090Z,15.10
2018-06-12T19:03:56.683Z,15.00
2018-06-12T19:06:25.337Z,14.90
2018-06-12T19:08:54.039Z,14.90
2018-06-12T19:11:22.725Z,14.80
2018-06-12T19:16:19.631Z,14.80
2018-06-12T19:18:48.292Z,14.80
2018-06-12T19:21:16.961Z,14.70
2018-06-12T19:23:45.600Z,14.70
2018-06-12T19:26:14.259Z,14.60
2018-06-12T19:28:42.969Z,14.60
2018-06-12T19:31:11.625Z,14.70
2018-06-12T19:33:40.321Z,14.60
2018-06-12T19:36:08.896Z,14.60
2018-06-12T19:38:37.540Z,14.60
2018-06-12T19:41:06.194Z,14.60
2018-06-12T19:43:34.824Z,14.60
2018-06-12T19:46:03.490Z,14.50
2018-06-12T19:48:32.134Z,14.50
2018-06-12T19:51:00.758Z,14.40
2018-06-12T19:53:29.469Z,14.40
2018-06-12T19:55:58.222Z,14.40
2018-06-12T19:58:26.836Z,14.30
2018-06-12T20:00:55.482Z,14.20
2018-06-12T20:03:24.131Z,14.20
2018-06-12T20:05:52.768Z,14.20
2018-06-12T20:08:21.396Z,14.20
2018-06-12T20:10:50.069Z,14.10
2018-06-12T20:13:18.677Z,14.10
2018-06-12T20:15:47.370Z,14.10
2018-06-12T20:18:15.987Z,14.10
2018-06-12T20:20:45.125Z,14.10
2018-06-12T20:23:13.739Z,14.10
2018-06-12T20:25:42.445Z,14.00
2018-06-12T20:28:11.035Z,14.00
2018-06-12T20:30:39.737Z,13.90
2018-06-12T20:33:08.380Z,14.00
2018-06-12T20:35:36.995Z,14.00
2018-06-12T20:38:05.658Z,14.00
2018-06-12T20:40:34.311Z,13.90
2018-06-12T20:43:02.912Z,13.90
2018-06-12T20:45:31.592Z,13.90
2018-06-12T20:48:00.301Z,14.00
2018-06-12T20:50:28.976Z,13.90
2018-06-12T20:52:57.611Z,13.80
2018-06-12T20:57:54.513Z,13.80
2018-06-12T21:00:23.197Z,13.80
2018-06-12T21:02:51.808Z,13.80
2018-06-12T21:05:20.429Z,13.80
2018-06-12T21:07:49.054Z,13.80
2018-06-12T21:10:17.822Z,13.70
2018-06-12T21:12:46.432Z,13.70
2018-06-12T21:15:15.034Z,13.60
2018-06-12T21:17:43.649Z,13.70
2018-06-12T21:20:12.259Z,13.70
2018-06-12T21:22:40.872Z,13.60
2018-06-12T21:25:09.510Z,13.60
2018-06-12T21:27:38.166Z,13.60
2018-06-12T21:30:06.862Z,13.60
2018-06-12T21:32:35.527Z,13.60
2018-06-12T21:35:04.259Z,13.60
2018-06-12T21:37:32.897Z,13.60
2018-06-12T21:40:01.497Z,13.60
2018-06-12T21:42:30.126Z,13.60
2018-06-12T21:44:58.843Z,13.60
2018-06-12T21:47:27.442Z,13.50
2018-06-12T21:49:56.029Z,13.50
2018-06-12T21:52:24.647Z,13.50
2018-06-12T21:54:53.225Z,13.40
2018-06-12T21:57:21.826Z,13.50
2018-06-12T21:59:50.390Z,13.40
2018-06-12T22:02:18.975Z,13.40
2018-06-12T22:04:47.562Z,13.40
2018-06-12T22:07:16.160Z,13.40
2018-06-12T22:09:44.750Z,13.40
2018-06-12T22:12:13.336Z,13.40
2018-06-12T22:14:41.916Z,13.40
2018-06-12T22:17:10.497Z,13.50
2018-06-12T22:19:39.049Z,13.40
2018-06-12T22:22:07.631Z,13.40
2018-06-12T22:24:36.183Z,13.40
2018-06-12T22:27:04.828Z,13.40
2018-06-12T22:29:33.371Z,13.40
2018-06-12T22:32:02.047Z,13.40
2018-06-12T22:34:30.637Z,13.40
2018-06-12T22:36:59.240Z,13.30
2018-06-12T22:39:27.832Z,13.40
2018-06-12T22:41:56.416Z,13.40
2018-06-12T22:44:24.984Z,13.40
2018-06-12T22:46:53.594Z,13.40
2018-06-12T22:49:22.180Z,13.40
2018-06-12T22:51:50.850Z,13.40
2018-06-12T22:54:19.427Z,13.40
2018-06-12T22:56:48.017Z,13.40
2018-06-12T22:59:16.590Z,13.40
2018-06-12T23:01:45.198Z,13.40
2018-06-12T23:04:13.757Z,13.40
2018-06-12T23:06:42.355Z,13.40
2018-06-12T23:09:10.955Z,13.40
2018-06-12T23:11:39.549Z,13.40
2018-06-12T23:14:08.401Z,13.50
2018-06-12T23:16:36.971Z,13.40
2018-06-12T23:19:05.616Z,13.40
2018-06-12T23:21:46.993Z,13.40
2018-06-12T23:24:15.610Z,13.50
2018-06-12T23:26:44.241Z,13.50
2018-06-12T23:29:12.861Z,13.50
2018-06-12T23:31:41.440Z,13.50
2018-06-12T23:34:10.069Z,13.40
2018-06-12T23:36:38.652Z,13.40
2018-06-12T23:39:08.412Z,13.50
2018-06-12T23:41:36.964Z,13.50
2018-06-12T23:44:05.594Z,13.50
2018-06-12T23:46:34.156Z,13.40
2018-06-12T23:49:02.771Z,13.40
2018-06-12T23:51:31.348Z,13.40
2018-06-12T23:53:59.953Z,13.50
2018-06-12T23:56:28.520Z,13.40
2018-06-12T23:58:57.110Z,13.40
